createdAt,value
2023-01-23T05:49:10.380Z,102519.56
2023-01-23T05:51:38.086Z,102517.69
2023-01-23T05:54:05.602Z,102518.09
2023-01-23T05:56:33.196Z,102517.06
2023-01-23T06:01:45.777Z,102523.31
2023-01-23T06:04:16.347Z,102523.00
2023-01-23T06:06:44.561Z,102526.78
2023-01-23T06:09:12.835Z,102524.56
2023-01-23T06:11:40.805Z,102519.31
2023-01-23T06:14:08.640Z,102521.75
2023-01-23T06:16:38.389Z,102526.03
2023-01-23T06:19:06.047Z,102521.03
2023-01-23T06:21:35.230Z,102528.13
2023-01-23T06:24:03.693Z,102530.03
2023-01-23T06:26:31.856Z,102523.31
2023-01-23T06:28:59.919Z,102525.50
2023-01-23T06:31:27.722Z,102525.31
2023-01-23T06:33:55.474Z,102528.03
2023-01-23T06:36:23.510Z,102535.16
2023-01-23T06:38:52.662Z,102528.31
2023-01-23T06:41:20.351Z,102538.78
2023-01-23T06:43:48.520Z,102534.19
2023-01-23T06:46:16.325Z,102538.28
2023-01-23T06:48:44.006Z,102532.94
2023-01-23T06:51:12.206Z,102537.44
2023-01-23T06:53:40.132Z,102536.06
2023-01-23T06:56:09.713Z,102536.19
2023-01-23T06:58:39.427Z,102529.16
2023-01-23T07:04:33.630Z,102538.59
2023-01-23T07:07:01.235Z,102539.00
2023-01-23T07:09:29.092Z,102543.00
2023-01-23T07:11:58.647Z,102545.19
2023-01-23T07:14:27.124Z,102547.78
2023-01-23T07:16:54.962Z,102540.66
2023-01-23T07:19:23.345Z,102548.22
2023-01-23T07:21:50.927Z,102552.78
2023-01-23T07:24:18.517Z,102565.38
2023-01-23T07:26:46.692Z,102565.38
2023-01-23T07:29:15.666Z,102568.34
2023-01-23T07:31:43.270Z,102566.44
2023-01-23T07:34:11.362Z,102575.44
2023-01-23T07:36:38.984Z,102582.84
2023-01-23T07:39:06.523Z,102586.44
2023-01-23T07:41:34.569Z,102581.31
2023-01-23T07:44:02.704Z,102579.50
2023-01-23T07:46:32.650Z,102589.06
2023-01-23T07:49:00.223Z,102585.47
2023-01-23T07:51:27.848Z,102588.53
2023-01-23T07:54:00.508Z,102591.66
2023-01-23T07:56:34.490Z,102594.78
2023-01-23T07:59:03.149Z,102588.63
2023-01-23T08:01:32.611Z,102590.69
2023-01-23T08:04:00.699Z,102594.38
2023-01-23T08:06:28.328Z,102595.75
2023-01-23T08:08:55.910Z,102595.63
2023-01-23T08:11:27.019Z,102595.19
2023-01-23T08:13:54.574Z,102598.88
2023-01-23T08:16:22.546Z,102598.88
2023-01-23T08:18:52.235Z,102604.84
2023-01-23T08:21:19.804Z,102593.59
2023-01-23T08:23:47.624Z,102593.41
2023-01-23T08:26:16.576Z,102611.19
2023-01-23T08:28:44.774Z,102608.38
2023-01-23T08:31:13.480Z,102612.06
2023-01-23T08:33:41.628Z,102617.25
2023-01-23T08:36:13.160Z,102613.28
2023-01-23T08:38:40.768Z,102608.88
2023-01-23T08:41:10.515Z,102610.09
2023-01-23T08:43:38.342Z,102608.94
2023-01-23T08:46:06.110Z,102612.06
2023-01-23T08:48:35.423Z,102612.69
2023-01-23T08:51:03.927Z,102613.53
2023-01-23T08:53:33.639Z,102616.78
2023-01-23T08:56:01.852Z,102619.06
2023-01-23T08:58:29.585Z,102618.22
2023-01-23T09:00:57.542Z,102625.16
2023-01-23T09:03:25.597Z,102637.22
2023-01-23T09:05:53.415Z,102632.38
2023-01-23T09:08:21.016Z,102625.81
2023-01-23T09:10:50.957Z,102628.69
2023-01-23T09:13:19.648Z,102623.19
2023-01-23T09:15:47.223Z,102627.78
2023-01-23T09:18:15.376Z,102628.81
2023-01-23T09:20:43.011Z,102626.69
2023-01-23T09:23:10.783Z,102625.97
2023-01-23T09:25:39.615Z,102617.94
2023-01-23T09:28:08.615Z,102627.75
2023-01-23T09:30:36.972Z,102635.78
2023-01-23T09:33:05.073Z,102628.41
2023-01-23T09:35:32.651Z,102628.09
2023-01-23T09:38:05.006Z,102621.91
2023-01-23T09:40:33.812Z,102639.50
2023-01-23T09:43:03.700Z,102646.44
2023-01-23T09:45:33.943Z,102646.19
2023-01-23T09:48:08.715Z,102640.03
2023-01-23T09:50:38.331Z,102643.56
2023-01-23T09:53:09.284Z,102654.72
2023-01-23T09:55:41.796Z,102660.25
2023-01-23T09:58:16.396Z,102651.75
2023-01-23T10:00:46.573Z,102652.19
2023-01-23T10:03:15.482Z,102654.56
2023-01-23T10:05:47.838Z,102644.59
2023-01-23T10:08:21.912Z,102655.69
2023-01-23T10:10:54.786Z,102655.06
2023-01-23T10:13:31.038Z,102656.91
2023-01-23T10:16:07.038Z,102658.66
2023-01-23T10:18:36.939Z,102650.25
2023-01-23T10:21:10.706Z,102649.94
2023-01-23T10:23:47.500Z,102652.97
2023-01-23T10:26:19.822Z,102647.91
2023-01-23T10:28:47.742Z,102646.56
2023-01-23T10:31:24.955Z,102643.94
2023-01-23T10:33:55.754Z,102641.31
2023-01-23T10:36:32.519Z,102649.19
2023-01-23T10:39:05.550Z,102645.56
2023-01-23T10:41:34.335Z,102647.47
2023-01-23T10:44:02.297Z,102652.44
2023-01-23T10:46:32.214Z,102648.53
2023-01-23T10:49:00.870Z,102637.19
2023-01-23T10:51:32.627Z,102635.88
2023-01-23T10:54:29.578Z,102630.78
2023-01-23T10:56:59.802Z,102640.84
2023-01-23T10:59:30.033Z,102633.41
2023-01-23T11:02:00.497Z,102634.28
2023-01-23T11:04:29.149Z,102635.88
2023-01-23T11:07:04.658Z,102638.50
2023-01-23T11:09:32.498Z,102639.44
2023-01-23T11:12:00.665Z,102633.84
2023-01-23T11:14:28.691Z,102625.56
2023-01-23T11:17:05.353Z,102625.63
2023-01-23T11:19:34.803Z,102625.25
2023-01-23T11:22:03.421Z,102623.63
2023-01-23T11:24:41.468Z,102622.41
2023-01-23T11:27:18.420Z,102627.34
2023-01-23T11:29:54.664Z,102627.75
2023-01-23T11:32:24.894Z,102622.50
2023-01-23T11:34:54.921Z,102626.97
2023-01-23T11:37:26.445Z,102616.34
2023-01-23T11:39:56.274Z,102623.88
2023-01-23T11:42:28.323Z,102614.84
2023-01-23T11:44:57.750Z,102624.88
2023-01-23T11:47:46.778Z,102627.59
2023-01-23T11:50:24.051Z,102629.38
2023-01-23T11:52:57.057Z,102633.81
2023-01-23T11:55:35.266Z,102629.91
2023-01-23T11:58:07.344Z,102627.75
2023-01-23T12:00:40.177Z,102623.69
2023-01-23T12:03:26.535Z,102619.78
2023-01-23T12:06:18.780Z,102620.91
2023-01-23T12:08:51.561Z,102622.69
2023-01-23T12:11:20.317Z,102627.97
2023-01-23T12:13:54.392Z,102622.31
2023-01-23T12:16:25.108Z,102620.84
2023-01-23T12:19:04.630Z,102626.34
2023-01-23T12:21:38.347Z,102625.69
2023-01-23T12:24:12.282Z,102625.44
2023-01-23T12:26:45.675Z,102616.06
2023-01-23T12:29:29.407Z,102613.16
2023-01-23T12:32:06.476Z,102613.84
2023-01-23T12:34:41.330Z,102607.25
2023-01-23T12:40:23.254Z,102593.16
2023-01-23T12:42:54.891Z,102610.94
2023-01-23T12:45:24.288Z,102597.72
2023-01-23T12:47:57.519Z,102598.69
2023-01-23T12:50:30.990Z,102599.25
2023-01-23T12:53:01.552Z,102598.97
2023-01-23T12:55:34.742Z,102596.75
2023-01-23T12:58:08.943Z,102607.00
2023-01-23T13:00:47.971Z,102601.41
2023-01-23T13:03:24.666Z,102600.34
2023-01-23T13:05:57.684Z,102601.00
2023-01-23T13:08:31.547Z,102614.31
2023-01-23T13:11:25.972Z,102596.66
2023-01-23T13:13:53.705Z,102604.31
2023-01-23T13:16:21.558Z,102592.88
2023-01-23T13:19:13.609Z,102599.28
2023-01-23T13:21:59.011Z,102597.28
2023-01-23T13:24:48.955Z,102603.28
2023-01-23T13:27:35.370Z,102598.91
2023-01-23T13:30:06.668Z,102597.00
2023-01-23T13:32:34.376Z,102599.59
2023-01-23T13:35:02.139Z,102602.22
2023-01-23T13:37:34.742Z,102604.69
2023-01-23T13:40:06.800Z,102601.03
2023-01-23T13:42:37.400Z,102604.16
2023-01-23T13:45:38.214Z,102607.59
2023-01-23T14:20:26.771Z,102629.19
2023-01-23T14:22:56.595Z,102632.91
2023-01-23T14:25:24.676Z,102631.56
2023-01-23T14:28:02.672Z,102627.63
2023-01-23T14:30:31.740Z,102620.88
2023-01-23T14:32:59.928Z,102622.97
2023-01-23T14:35:28.527Z,102626.41
2023-01-23T14:37:58.933Z,102628.44
2023-01-23T14:40:30.735Z,102624.66
2023-01-23T14:43:04.696Z,102618.47
2023-01-23T14:45:33.595Z,102628.03
2023-01-23T14:48:06.480Z,102616.34
2023-01-23T14:50:35.328Z,102622.31
2023-01-23T14:53:05.094Z,102612.66
2023-01-23T14:55:36.100Z,102611.13
2023-01-23T14:58:04.805Z,102608.22
2023-01-23T15:00:33.105Z,102620.19
2023-01-23T15:03:00.980Z,102612.94
2023-01-23T15:05:29.204Z,102610.25
2023-01-23T15:07:57.633Z,102604.19
2023-01-23T15:10:28.465Z,102593.25
2023-01-23T15:12:58.313Z,102579.66
2023-01-23T15:15:26.636Z,102580.25
2023-01-23T15:17:55.448Z,102567.69
2023-01-23T15:20:36.225Z,102566.16
2023-01-23T15:23:25.679Z,102557.09
2023-01-23T15:26:08.092Z,102559.59
2023-01-23T15:28:41.390Z,102561.03
2023-01-23T15:31:22.403Z,102556.50
2023-01-23T15:33:49.954Z,102563.53
2023-01-23T15:36:23.859Z,102567.22
2023-01-23T15:38:52.089Z,102556.13
2023-01-23T15:41:33.900Z,102565.44
2023-01-23T15:44:03.881Z,102569.28
2023-01-23T15:46:31.556Z,102583.56
2023-01-23T15:48:59.069Z,102577.91
2023-01-23T15:51:26.736Z,102585.56
2023-01-23T15:53:54.304Z,102589.84
2023-01-23T15:56:26.897Z,102599.25
2023-01-23T15:58:54.465Z,102597.13
2023-01-23T16:01:23.638Z,102602.50
2023-01-23T16:03:51.790Z,102606.66
2023-01-23T16:06:21.004Z,102598.44
2023-01-23T16:08:55.056Z,102603.25
2023-01-23T16:14:20.345Z,102606.25
2023-01-23T16:16:49.401Z,102608.16
2023-01-23T16:19:16.892Z,102613.38
2023-01-23T16:21:47.677Z,102620.06
2023-01-23T16:24:21.395Z,102618.88
2023-01-23T16:26:49.859Z,102611.25
2023-01-23T16:29:27.855Z,102628.25
2023-01-23T16:31:57.760Z,102620.94
2023-01-23T16:34:25.904Z,102623.97
2023-01-23T16:36:54.724Z,102625.97
2023-01-23T16:39:24.610Z,102620.38
2023-01-23T16:41:54.512Z,102625.63
2023-01-23T16:44:23.895Z,102623.41
2023-01-23T16:46:53.196Z,102625.13
2023-01-23T16:49:22.426Z,102623.28
2023-01-23T16:51:57.005Z,102621.22
2023-01-23T16:54:25.852Z,102626.72
2023-01-23T16:56:54.269Z,102614.69
2023-01-23T16:59:26.559Z,102624.38
2023-01-23T17:01:54.424Z,102616.47
2023-01-23T17:04:23.631Z,102614.63
2023-01-23T17:06:51.551Z,102623.69
2023-01-23T17:09:19.105Z,102625.97
2023-01-23T17:11:48.188Z,102622.16
2023-01-23T17:14:18.782Z,102621.06
2023-01-23T17:16:46.870Z,102622.22
2023-01-23T17:19:21.078Z,102622.97
2023-01-23T17:21:51.804Z,102636.59
2023-01-23T17:24:19.679Z,102635.13
2023-01-23T17:26:47.509Z,102641.59
2023-01-23T17:29:15.235Z,102634.69
2023-01-23T17:31:43.186Z,102641.28
2023-01-23T17:34:18.681Z,102639.06
2023-01-23T17:36:46.398Z,102638.63
2023-01-23T17:39:15.354Z,102639.19
2023-01-23T17:41:42.939Z,102637.56
2023-01-23T17:44:10.484Z,102643.84
2023-01-23T17:46:39.673Z,102644.94
2023-01-23T17:49:22.295Z,102642.47
2023-01-23T17:51:49.999Z,102648.94
2023-01-23T17:54:20.224Z,102649.88
2023-01-23T17:56:48.278Z,102659.00
2023-01-23T17:59:15.870Z,102645.69
2023-01-23T18:01:43.427Z,102647.81
2023-01-23T18:04:15.035Z,102650.09
2023-01-23T18:06:42.663Z,102661.34
2023-01-23T18:09:10.265Z,102658.38
2023-01-23T18:11:40.295Z,102665.06
2023-01-23T18:14:18.210Z,102664.06
2023-01-23T18:16:48.299Z,102667.09
2023-01-23T18:19:17.467Z,102664.88
2023-01-23T18:21:45.640Z,102670.50
2023-01-23T18:24:21.300Z,102672.16
2023-01-23T18:26:56.392Z,102670.25
2023-01-23T18:29:28.243Z,102682.69
2023-01-23T18:32:04.196Z,102678.91
2023-01-23T18:34:34.079Z,102674.13
2023-01-23T18:37:07.700Z,102676.03
2023-01-23T18:39:45.088Z,102674.88
2023-01-23T18:42:17.046Z,102675.44
2023-01-23T18:47:38.848Z,102685.66
2023-01-23T18:50:07.320Z,102680.13
2023-01-23T18:52:42.769Z,102677.78
2023-01-23T18:55:16.189Z,102677.94
2023-01-23T18:57:54.014Z,102682.41
2023-01-23T19:00:24.816Z,102676.94
2023-01-23T19:05:45.412Z,102681.03
2023-01-23T19:11:20.260Z,102678.06
2023-01-23T19:19:41.042Z,102676.00
2023-01-23T19:22:11.370Z,102671.91
2023-01-23T19:24:39.461Z,102681.97
2023-01-23T19:27:14.958Z,102680.47
2023-01-23T19:29:44.385Z,102685.38
2023-01-23T19:32:13.507Z,102683.69
2023-01-23T19:34:42.958Z,102680.41
2023-01-23T19:37:10.970Z,102689.78
2023-01-23T19:39:38.688Z,102672.97
2023-01-23T19:42:06.586Z,102678.53
2023-01-23T19:44:34.331Z,102688.22
2023-01-23T19:49:55.477Z,102683.72
2023-01-23T19:52:23.495Z,102686.13
2023-01-23T19:54:51.175Z,102693.28
2023-01-23T19:57:19.055Z,102688.97
2023-01-23T19:59:46.691Z,102701.53
2023-01-23T20:02:19.204Z,102687.94
2023-01-23T20:04:47.158Z,102691.75
2023-01-23T20:07:14.889Z,102692.75
2023-01-23T20:09:42.760Z,102687.97
2023-01-23T20:12:14.056Z,102685.44
2023-01-23T20:14:41.680Z,102688.34
2023-01-23T20:17:10.037Z,102695.22
2023-01-23T20:19:40.896Z,102693.47
2023-01-23T20:22:09.678Z,102684.41
2023-01-23T20:24:37.343Z,102688.91
2023-01-23T20:27:05.050Z,102689.78
2023-01-23T20:29:32.769Z,102694.47
2023-01-23T20:32:01.164Z,102691.72
2023-01-23T20:34:29.183Z,102692.72
2023-01-23T20:36:58.490Z,102684.59
2023-01-23T20:39:26.254Z,102684.03
2023-01-23T20:41:54.024Z,102680.81
2023-01-23T20:44:22.726Z,102681.97
2023-01-23T20:46:50.448Z,102684.06
2023-01-23T20:49:18.156Z,102674.28
2023-01-23T20:51:46.456Z,102683.66
2023-01-23T20:54:15.630Z,102678.84
2023-01-23T20:56:43.960Z,102677.69
2023-01-23T20:59:19.998Z,102694.50
2023-01-23T21:02:05.041Z,102687.94
2023-01-23T21:04:34.668Z,102694.75
2023-01-23T21:07:02.461Z,102686.06
2023-01-23T21:09:31.707Z,102690.91
2023-01-23T21:12:00.066Z,102699.28
2023-01-23T21:14:27.906Z,102702.63
2023-01-23T21:16:55.640Z,102707.75
2023-01-23T21:19:24.004Z,102701.41
2023-01-23T21:21:51.962Z,102703.22
2023-01-23T21:24:19.839Z,102702.25
2023-01-23T21:26:49.381Z,102707.34
2023-01-23T21:29:17.052Z,102697.69
2023-01-23T21:31:44.825Z,102701.09
2023-01-23T21:34:14.485Z,102698.38
2023-01-23T21:36:43.254Z,102703.47
2023-01-23T21:39:12.206Z,102704.13
2023-01-23T21:41:40.153Z,102701.75
2023-01-23T21:44:10.433Z,102695.84
2023-01-23T21:46:39.004Z,102704.53
2023-01-23T21:49:06.726Z,102700.38
2023-01-23T21:51:34.410Z,102699.75
2023-01-23T21:54:02.265Z,102706.03
2023-01-23T21:56:30.237Z,102702.25
2023-01-23T21:58:58.836Z,102698.78
2023-01-23T22:01:34.005Z,102701.75
2023-01-23T22:04:02.387Z,102689.63
2023-01-23T22:06:30.174Z,102690.56
2023-01-23T22:08:58.159Z,102697.53
2023-01-23T22:11:26.182Z,102690.03
2023-01-23T22:13:54.085Z,102690.59
2023-01-23T22:19:13.347Z,102697.88
2023-01-23T22:21:41.091Z,102694.59
2023-01-23T22:24:09.347Z,102688.28
2023-01-23T22:26:37.131Z,102694.44
2023-01-23T22:29:05.000Z,102699.06
2023-01-23T22:31:33.367Z,102694.75
2023-01-23T22:34:01.094Z,102686.97
2023-01-23T22:36:30.181Z,102694.69
2023-01-23T22:41:46.737Z,102697.25
2023-01-23T22:44:15.608Z,102701.72
2023-01-23T22:46:43.893Z,102701.41
2023-01-23T22:49:11.577Z,102703.97
2023-01-23T22:51:40.744Z,102702.00
2023-01-23T22:54:09.054Z,102699.50
2023-01-23T22:56:36.797Z,102701.78
2023-01-23T22:59:04.609Z,102693.09
2023-01-23T23:01:32.654Z,102698.00
2023-01-23T23:04:00.971Z,102693.69
2023-01-23T23:06:29.200Z,102700.91
2023-01-23T23:08:58.778Z,102685.44
2023-01-23T23:11:27.579Z,102695.84
2023-01-23T23:13:56.682Z,102691.31
2023-01-23T23:16:26.265Z,102695.50
2023-01-23T23:18:54.915Z,102706.53
2023-01-23T23:21:24.231Z,102713.25
2023-01-23T23:23:52.819Z,102724.81
2023-01-23T23:26:22.071Z,102718.72
2023-01-23T23:28:49.704Z,102709.81
2023-01-23T23:31:17.951Z,102711.88
2023-01-23T23:33:45.956Z,102725.13
2023-01-23T23:36:13.642Z,102718.81
2023-01-23T23:38:41.328Z,102719.53
2023-01-23T23:41:10.084Z,102720.31
2023-01-23T23:43:39.335Z,102720.91
2023-01-23T23:46:08.571Z,102714.78
2023-01-23T23:48:37.416Z,102708.75
2023-01-23T23:51:06.213Z,102706.72
2023-01-23T23:53:34.446Z,102711.81
2023-01-23T23:56:02.246Z,102714.41
2023-01-23T23:58:29.976Z,102712.91
